sensor_id;sensor_type;location;lat;lon;timestamp;P1;durP1;ratioP1;P2;durP2;ratioP2
25299;SDS011;13241;51.208;4.432;2024-02-28T00:00:18;7.78;;;2.65;;
25299;SDS011;13241;51.208;4.432;2024-02-28T00:02:45;6.05;;;2.72;;
25299;SDS011;13241;51.208;4.432;2024-02-28T00:05:12;4.45;;;2.85;;
25299;SDS011;13241;51.208;4.432;2024-02-28T00:07:40;4.78;;;2.95;;
25299;SDS011;13241;51.208;4.432;2024-02-28T00:10:07;5.43;;;2.95;;
25299;SDS011;13241;51.208;4.432;2024-02-28T00:12:35;3.72;;;2.38;;
25299;SDS011;13241;51.208;4.432;2024-02-28T00:15:04;3.85;;;3.20;;
25299;SDS011;13241;51.208;4.432;2024-02-28T00:17:31;7.55;;;2.63;;
25299;SDS011;13241;51.208;4.432;2024-02-28T00:19:59;4.15;;;2.88;;
25299;SDS011;13241;51.208;4.432;2024-02-28T00:22:26;3.72;;;2.40;;
25299;SDS011;13241;51.208;4.432;2024-02-28T00:24:54;2.75;;;2.33;;
25299;SDS011;13241;51.208;4.432;2024-02-28T00:27:21;4.63;;;3.67;;
25299;SDS011;13241;51.208;4.432;2024-02-28T00:29:48;6.82;;;2.72;;
25299;SDS011;13241;51.208;4.432;2024-02-28T00:32:15;8.77;;;2.67;;
25299;SDS011;13241;51.208;4.432;2024-02-28T00:34:43;5.43;;;3.38;;
25299;SDS011;13241;51.208;4.432;2024-02-28T00:37:10;8.20;;;3.38;;
25299;SDS011;13241;51.208;4.432;2024-02-28T00:39:37;4.57;;;3.20;;
25299;SDS011;13241;51.208;4.432;2024-02-28T00:42:05;6.93;;;3.55;;
25299;SDS011;13241;51.208;4.432;2024-02-28T00:44:32;11.27;;;4.25;;
25299;SDS011;13241;51.208;4.432;2024-02-28T00:47:00;4.07;;;2.88;;
25299;SDS011;13241;51.208;4.432;2024-02-28T00:49:27;6.32;;;3.38;;
25299;SDS011;13241;51.208;4.432;2024-02-28T00:51:54;4.00;;;3.45;;
25299;SDS011;13241;51.208;4.432;2024-02-28T00:54:22;4.45;;;2.60;;
25299;SDS011;13241;51.208;4.432;2024-02-28T00:56:51;7.60;;;3.90;;
25299;SDS011;13241;51.208;4.432;2024-02-28T00:59:19;5.53;;;2.97;;
25299;SDS011;13241;51.208;4.432;2024-02-28T01:01:47;4.65;;;2.85;;
25299;SDS011;13241;51.208;4.432;2024-02-28T01:04:15;5.22;;;3.72;;
25299;SDS011;13241;51.208;4.432;2024-02-28T01:06:43;5.50;;;3.58;;
25299;SDS011;13241;51.208;4.432;2024-02-28T01:09:11;5.47;;;2.83;;
25299;SDS011;13241;51.208;4.432;2024-02-28T01:11:38;6.45;;;3.45;;
25299;SDS011;13241;51.208;4.432;2024-02-28T01:14:06;5.80;;;3.22;;
25299;SDS011;13241;51.208;4.432;2024-02-28T01:16:34;6.13;;;3.85;;
25299;SDS011;13241;51.208;4.432;2024-02-28T01:19:01;3.97;;;3.13;;
25299;SDS011;13241;51.208;4.432;2024-02-28T01:21:29;8.52;;;4.72;;
25299;SDS011;13241;51.208;4.432;2024-02-28T01:23:57;6.45;;;3.75;;
25299;SDS011;13241;51.208;4.432;2024-02-28T01:26:24;5.78;;;3.55;;
25299;SDS011;13241;51.208;4.432;2024-02-28T01:28:52;14.77;;;4.07;;
25299;SDS011;13241;51.208;4.432;2024-02-28T01:31:19;6.45;;;3.75;;
25299;SDS011;13241;51.208;4.432;2024-02-28T01:33:46;7.60;;;3.78;;
25299;SDS011;13241;51.208;4.432;2024-02-28T01:36:14;9.93;;;4.10;;
25299;SDS011;13241;51.208;4.432;2024-02-28T01:38:42;6.10;;;3.50;;
25299;SDS011;13241;51.208;4.432;2024-02-28T01:41:09;6.30;;;3.55;;
25299;SDS011;13241;51.208;4.432;2024-02-28T01:43:36;4.85;;;3.30;;
25299;SDS011;13241;51.208;4.432;2024-02-28T01:46:05;7.38;;;4.10;;
25299;SDS011;13241;51.208;4.432;2024-02-28T01:48:33;4.93;;;3.47;;
25299;SDS011;13241;51.208;4.432;2024-02-28T01:51:01;4.10;;;3.08;;
25299;SDS011;13241;51.208;4.432;2024-02-28T01:53:28;6.97;;;3.88;;
25299;SDS011;13241;51.208;4.432;2024-02-28T01:55:55;5.38;;;3.53;;
25299;SDS011;13241;51.208;4.432;2024-02-28T01:58:23;5.50;;;3.22;;
25299;SDS011;13241;51.208;4.432;2024-02-28T02:00:50;4.78;;;3.40;;
25299;SDS011;13241;51.208;4.432;2024-02-28T02:03:19;7.80;;;3.72;;
25299;SDS011;13241;51.208;4.432;2024-02-28T02:05:46;5.05;;;3.65;;
25299;SDS011;13241;51.208;4.432;2024-02-28T02:08:13;6.93;;;3.30;;
25299;SDS011;13241;51.208;4.432;2024-02-28T02:10:41;5.50;;;3.42;;
25299;SDS011;13241;51.208;4.432;2024-02-28T02:13:09;7.05;;;3.85;;
25299;SDS011;13241;51.208;4.432;2024-02-28T02:15:36;8.30;;;4.18;;
25299;SDS011;13241;51.208;4.432;2024-02-28T02:18:05;6.30;;;2.95;;
25299;SDS011;13241;51.208;4.432;2024-02-28T02:20:32;5.88;;;3.03;;
25299;SDS011;13241;51.208;4.432;2024-02-28T02:23:02;5.28;;;2.90;;
25299;SDS011;13241;51.208;4.432;2024-02-28T02:25:30;5.32;;;3.25;;
25299;SDS011;13241;51.208;4.432;2024-02-28T02:27:57;6.38;;;3.25;;
25299;SDS011;13241;51.208;4.432;2024-02-28T02:30:25;8.25;;;3.50;;
25299;SDS011;13241;51.208;4.432;2024-02-28T02:32:53;5.78;;;3.28;;
25299;SDS011;13241;51.208;4.432;2024-02-28T02:35:20;5.40;;;3.88;;
25299;SDS011;13241;51.208;4.432;2024-02-28T02:37:47;7.35;;;3.63;;
25299;SDS011;13241;51.208;4.432;2024-02-28T02:40:15;9.38;;;4.57;;
25299;SDS011;13241;51.208;4.432;2024-02-28T02:42:42;12.45;;;3.55;;
25299;SDS011;13241;51.208;4.432;2024-02-28T02:45:10;9.05;;;4.00;;
25299;SDS011;13241;51.208;4.432;2024-02-28T02:47:38;6.03;;;3.88;;
25299;SDS011;13241;51.208;4.432;2024-02-28T02:50:05;7.80;;;3.90;;
25299;SDS011;13241;51.208;4.432;2024-02-28T02:52:33;9.35;;;3.97;;
25299;SDS011;13241;51.208;4.432;2024-02-28T02:55:00;10.63;;;5.00;;
25299;SDS011;13241;51.208;4.432;2024-02-28T02:57:27;10.27;;;4.55;;
25299;SDS011;13241;51.208;4.432;2024-02-28T02:59:57;13.88;;;4.55;;
25299;SDS011;13241;51.208;4.432;2024-02-28T03:02:24;10.73;;;4.93;;
25299;SDS011;13241;51.208;4.432;2024-02-28T03:04:51;13.93;;;5.22;;
25299;SDS011;13241;51.208;4.432;2024-02-28T03:07:19;5.43;;;3.60;;
25299;SDS011;13241;51.208;4.432;2024-02-28T03:09:46;7.25;;;3.72;;
25299;SDS011;13241;51.208;4.432;2024-02-28T03:12:13;10.38;;;5.38;;
25299;SDS011;13241;51.208;4.432;2024-02-28T03:14:41;7.10;;;4.45;;
25299;SDS011;13241;51.208;4.432;2024-02-28T03:17:09;8.43;;;4.07;;
25299;SDS011;13241;51.208;4.432;2024-02-28T03:19:36;5.88;;;3.67;;
25299;SDS011;13241;51.208;4.432;2024-02-28T03:22:04;7.45;;;4.00;;
25299;SDS011;13241;51.208;4.432;2024-02-28T03:24:32;10.38;;;3.83;;
25299;SDS011;13241;51.208;4.432;2024-02-28T03:27:03;6.13;;;4.65;;
25299;SDS011;13241;51.208;4.432;2024-02-28T03:29:31;6.47;;;4.47;;
25299;SDS011;13241;51.208;4.432;2024-02-28T03:31:58;8.45;;;4.38;;
25299;SDS011;13241;51.208;4.432;2024-02-28T03:34:25;9.57;;;5.18;;
25299;SDS011;13241;51.208;4.432;2024-02-28T03:36:54;10.15;;;4.75;;
25299;SDS011;13241;51.208;4.432;2024-02-28T03:39:21;9.85;;;4.75;;
25299;SDS011;13241;51.208;4.432;2024-02-28T03:41:48;7.50;;;4.57;;
25299;SDS011;13241;51.208;4.432;2024-02-28T03:44:16;9.52;;;4.60;;
25299;SDS011;13241;51.208;4.432;2024-02-28T03:46:44;8.70;;;4.38;;
25299;SDS011;13241;51.208;4.432;2024-02-28T03:49:11;9.75;;;5.25;;
25299;SDS011;13241;51.208;4.432;2024-02-28T03:51:42;14.63;;;4.45;;
25299;SDS011;13241;51.208;4.432;2024-02-28T03:54:09;17.40;;;5.10;;
25299;SDS011;13241;51.208;4.432;2024-02-28T03:56:37;10.82;;;5.40;;
25299;SDS011;13241;51.208;4.432;2024-02-28T03:59:04;7.70;;;4.50;;
25299;SDS011;13241;51.208;4.432;2024-02-28T04:01:31;7.57;;;4.07;;
25299;SDS011;13241;51.208;4.432;2024-02-28T04:03:59;10.30;;;5.25;;
25299;SDS011;13241;51.208;4.432;2024-02-28T04:06:26;8.48;;;4.68;;
25299;SDS011;13241;51.208;4.432;2024-02-28T04:08:54;10.80;;;5.82;;
25299;SDS011;13241;51.208;4.432;2024-02-28T04:11:21;8.70;;;4.15;;
25299;SDS011;13241;51.208;4.432;2024-02-28T04:13:48;5.85;;;3.88;;
25299;SDS011;13241;51.208;4.432;2024-02-28T04:16:16;6.38;;;4.40;;
25299;SDS011;13241;51.208;4.432;2024-02-28T04:18:43;8.57;;;5.13;;
25299;SDS011;13241;51.208;4.432;2024-02-28T04:21:10;9.60;;;4.95;;
25299;SDS011;13241;51.208;4.432;2024-02-28T04:23:38;8.57;;;5.13;;
25299;SDS011;13241;51.208;4.432;2024-02-28T04:26:05;14.88;;;4.82;;
25299;SDS011;13241;51.208;4.432;2024-02-28T04:28:32;6.45;;;4.20;;
25299;SDS011;13241;51.208;4.432;2024-02-28T04:31:00;7.65;;;5.07;;
25299;SDS011;13241;51.208;4.432;2024-02-28T04:33:27;8.65;;;5.07;;
25299;SDS011;13241;51.208;4.432;2024-02-28T04:35:55;16.50;;;5.38;;
25299;SDS011;13241;51.208;4.432;2024-02-28T04:38:22;10.32;;;4.63;;
25299;SDS011;13241;51.208;4.432;2024-02-28T04:40:49;8.43;;;4.78;;
25299;SDS011;13241;51.208;4.432;2024-02-28T04:43:17;7.90;;;4.40;;
25299;SDS011;13241;51.208;4.432;2024-02-28T04:45:44;7.75;;;4.00;;
25299;SDS011;13241;51.208;4.432;2024-02-28T04:48:11;9.90;;;4.65;;
25299;SDS011;13241;51.208;4.432;2024-02-28T04:50:39;14.43;;;4.53;;
25299;SDS011;13241;51.208;4.432;2024-02-28T04:53:06;8.40;;;5.25;;
25299;SDS011;13241;51.208;4.432;2024-02-28T04:55:33;5.50;;;4.63;;
25299;SDS011;13241;51.208;4.432;2024-02-28T04:58:01;8.13;;;4.85;;
25299;SDS011;13241;51.208;4.432;2024-02-28T05:00:28;8.30;;;4.72;;
25299;SDS011;13241;51.208;4.432;2024-02-28T05:02:56;7.03;;;4.50;;
25299;SDS011;13241;51.208;4.432;2024-02-28T05:05:23;7.20;;;4.88;;
25299;SDS011;13241;51.208;4.432;2024-02-28T05:07:51;10.77;;;5.30;;
25299;SDS011;13241;51.208;4.432;2024-02-28T05:10:18;8.68;;;5.05;;
25299;SDS011;13241;51.208;4.432;2024-02-28T05:12:45;8.90;;;5.20;;
25299;SDS011;13241;51.208;4.432;2024-02-28T05:15:13;9.05;;;4.35;;
25299;SDS011;13241;51.208;4.432;2024-02-28T05:17:40;10.20;;;3.95;;
25299;SDS011;13241;51.208;4.432;2024-02-28T05:20:08;9.80;;;5.90;;
25299;SDS011;13241;51.208;4.432;2024-02-28T05:22:35;15.95;;;5.22;;
25299;SDS011;13241;51.208;4.432;2024-02-28T05:25:03;8.32;;;4.68;;
25299;SDS011;13241;51.208;4.432;2024-02-28T05:27:30;11.35;;;5.40;;
25299;SDS011;13241;51.208;4.432;2024-02-28T05:29:57;10.23;;;4.82;;
25299;SDS011;13241;51.208;4.432;2024-02-28T05:32:27;9.60;;;4.43;;
25299;SDS011;13241;51.208;4.432;2024-02-28T05:34:54;12.18;;;5.30;;
25299;SDS011;13241;51.208;4.432;2024-02-28T05:37:22;6.03;;;4.30;;
25299;SDS011;13241;51.208;4.432;2024-02-28T05:39:49;8.43;;;4.55;;
25299;SDS011;13241;51.208;4.432;2024-02-28T05:42:17;14.80;;;4.50;;
25299;SDS011;13241;51.208;4.432;2024-02-28T05:44:48;5.50;;;3.55;;
25299;SDS011;13241;51.208;4.432;2024-02-28T05:47:16;6.43;;;4.57;;
25299;SDS011;13241;51.208;4.432;2024-02-28T05:49:46;5.72;;;3.60;;
25299;SDS011;13241;51.208;4.432;2024-02-28T05:52:13;12.05;;;4.72;;
25299;SDS011;13241;51.208;4.432;2024-02-28T05:54:40;10.23;;;5.00;;
25299;SDS011;13241;51.208;4.432;2024-02-28T05:57:08;7.57;;;4.30;;
25299;SDS011;13241;51.208;4.432;2024-02-28T05:59:35;7.10;;;4.47;;
25299;SDS011;13241;51.208;4.432;2024-02-28T06:02:03;11.20;;;5.00;;
25299;SDS011;13241;51.208;4.432;2024-02-28T06:04:31;10.05;;;5.18;;
25299;SDS011;13241;51.208;4.432;2024-02-28T06:06:59;9.57;;;4.97;;
25299;SDS011;13241;51.208;4.432;2024-02-28T06:09:27;6.28;;;3.97;;
25299;SDS011;13241;51.208;4.432;2024-02-28T06:11:54;8.98;;;6.03;;
25299;SDS011;13241;51.208;4.432;2024-02-28T06:14:25;11.23;;;5.68;;
25299;SDS011;13241;51.208;4.432;2024-02-28T06:16:53;10.73;;;5.20;;
25299;SDS011;13241;51.208;4.432;2024-02-28T06:19:20;10.50;;;4.95;;
25299;SDS011;13241;51.208;4.432;2024-02-28T06:21:47;8.48;;;4.70;;
25299;SDS011;13241;51.208;4.432;2024-02-28T06:24:16;8.48;;;4.32;;
25299;SDS011;13241;51.208;4.432;2024-02-28T06:26:43;17.10;;;5.38;;
25299;SDS011;13241;51.208;4.432;2024-02-28T06:29:15;11.68;;;4.97;;
25299;SDS011;13241;51.208;4.432;2024-02-28T06:31:42;6.28;;;3.90;;
25299;SDS011;13241;51.208;4.432;2024-02-28T06:34:10;8.85;;;4.88;;
25299;SDS011;13241;51.208;4.432;2024-02-28T06:36:40;7.45;;;4.13;;
25299;SDS011;13241;51.208;4.432;2024-02-28T06:39:07;10.25;;;4.03;;
25299;SDS011;13241;51.208;4.432;2024-02-28T06:41:35;9.13;;;4.97;;
25299;SDS011;13241;51.208;4.432;2024-02-28T06:44:03;10.93;;;5.18;;
25299;SDS011;13241;51.208;4.432;2024-02-28T06:46:30;14.10;;;5.20;;
25299;SDS011;13241;51.208;4.432;2024-02-28T06:48:57;7.30;;;4.40;;
25299;SDS011;13241;51.208;4.432;2024-02-28T06:51:26;6.88;;;4.28;;
25299;SDS011;13241;51.208;4.432;2024-02-28T06:53:53;13.30;;;5.18;;
25299;SDS011;13241;51.208;4.432;2024-02-28T06:56:22;8.70;;;5.03;;
25299;SDS011;13241;51.208;4.432;2024-02-28T06:58:50;13.85;;;5.10;;
25299;SDS011;13241;51.208;4.432;2024-02-28T07:01:17;6.75;;;4.38;;
25299;SDS011;13241;51.208;4.432;2024-02-28T07:03:48;8.38;;;5.50;;
25299;SDS011;13241;51.208;4.432;2024-02-28T07:06:17;11.00;;;4.82;;
25299;SDS011;13241;51.208;4.432;2024-02-28T07:08:45;11.80;;;5.50;;
25299;SDS011;13241;51.208;4.432;2024-02-28T07:11:13;10.82;;;4.97;;
25299;SDS011;13241;51.208;4.432;2024-02-28T07:13:41;15.20;;;5.53;;
25299;SDS011;13241;51.208;4.432;2024-02-28T07:16:08;13.05;;;5.65;;
25299;SDS011;13241;51.208;4.432;2024-02-28T07:18:36;8.40;;;4.10;;
25299;SDS011;13241;51.208;4.432;2024-02-28T07:21:03;8.70;;;5.03;;
25299;SDS011;13241;51.208;4.432;2024-02-28T07:23:33;10.82;;;5.63;;
25299;SDS011;13241;51.208;4.432;2024-02-28T07:26:00;9.80;;;5.07;;
25299;SDS011;13241;51.208;4.432;2024-02-28T07:28:41;12.90;;;6.13;;
25299;SDS011;13241;51.208;4.432;2024-02-28T07:31:18;12.45;;;6.40;;
25299;SDS011;13241;51.208;4.432;2024-02-28T07:33:46;17.02;;;6.47;;
25299;SDS011;13241;51.208;4.432;2024-02-28T07:36:13;11.00;;;5.85;;
25299;SDS011;13241;51.208;4.432;2024-02-28T07:38:41;8.40;;;4.95;;
25299;SDS011;13241;51.208;4.432;2024-02-28T07:41:08;10.35;;;6.05;;
25299;SDS011;13241;51.208;4.432;2024-02-28T07:43:36;12.60;;;5.30;;
25299;SDS011;13241;51.208;4.432;2024-02-28T07:46:10;16.17;;;5.78;;
25299;SDS011;13241;51.208;4.432;2024-02-28T07:48:38;15.32;;;5.72;;
25299;SDS011;13241;51.208;4.432;2024-02-28T07:51:06;16.77;;;5.78;;
25299;SDS011;13241;51.208;4.432;2024-02-28T07:53:34;7.70;;;4.45;;
25299;SDS011;13241;51.208;4.432;2024-02-28T07:56:01;11.55;;;5.60;;
25299;SDS011;13241;51.208;4.432;2024-02-28T07:58:29;10.00;;;5.65;;
25299;SDS011;13241;51.208;4.432;2024-02-28T08:00:57;14.93;;;6.18;;
25299;SDS011;13241;51.208;4.432;2024-02-28T08:03:25;9.77;;;6.03;;
25299;SDS011;13241;51.208;4.432;2024-02-28T08:05:52;13.30;;;5.90;;
25299;SDS011;13241;51.208;4.432;2024-02-28T08:08:19;11.65;;;5.50;;
25299;SDS011;13241;51.208;4.432;2024-02-28T08:10:47;13.95;;;6.55;;
25299;SDS011;13241;51.208;4.432;2024-02-28T08:13:15;13.65;;;7.45;;
25299;SDS011;13241;51.208;4.432;2024-02-28T08:15:43;10.63;;;5.50;;
25299;SDS011;13241;51.208;4.432;2024-02-28T08:18:11;10.77;;;5.60;;
25299;SDS011;13241;51.208;4.432;2024-02-28T08:20:39;9.82;;;5.32;;
25299;SDS011;13241;51.208;4.432;2024-02-28T08:23:06;15.10;;;6.60;;
25299;SDS011;13241;51.208;4.432;2024-02-28T08:25:33;7.20;;;4.47;;
25299;SDS011;13241;51.208;4.432;2024-02-28T08:28:00;16.33;;;6.80;;
25299;SDS011;13241;51.208;4.432;2024-02-28T08:30:29;11.00;;;5.85;;
25299;SDS011;13241;51.208;4.432;2024-02-28T08:32:57;16.60;;;6.80;;
25299;SDS011;13241;51.208;4.432;2024-02-28T08:35:24;13.23;;;5.93;;
25299;SDS011;13241;51.208;4.432;2024-02-28T08:37:52;17.45;;;6.90;;
25299;SDS011;13241;51.208;4.432;2024-02-28T08:40:20;19.42;;;8.35;;
25299;SDS011;13241;51.208;4.432;2024-02-28T08:42:47;13.77;;;6.97;;
25299;SDS011;13241;51.208;4.432;2024-02-28T08:45:19;11.70;;;5.78;;
25299;SDS011;13241;51.208;4.432;2024-02-28T08:47:47;16.58;;;6.53;;
25299;SDS011;13241;51.208;4.432;2024-02-28T08:50:14;24.17;;;7.05;;
25299;SDS011;13241;51.208;4.432;2024-02-28T08:52:42;21.13;;;6.22;;
25299;SDS011;13241;51.208;4.432;2024-02-28T08:55:09;14.07;;;7.38;;
25299;SDS011;13241;51.208;4.432;2024-02-28T08:57:37;12.10;;;6.00;;
25299;SDS011;13241;51.208;4.432;2024-02-28T09:00:05;13.80;;;6.05;;
25299;SDS011;13241;51.208;4.432;2024-02-28T09:02:35;14.52;;;6.85;;
25299;SDS011;13241;51.208;4.432;2024-02-28T09:05:03;18.92;;;7.20;;
25299;SDS011;13241;51.208;4.432;2024-02-28T09:07:31;14.50;;;7.07;;
25299;SDS011;13241;51.208;4.432;2024-02-28T09:09:58;14.23;;;5.63;;
25299;SDS011;13241;51.208;4.432;2024-02-28T09:12:26;10.10;;;6.35;;
25299;SDS011;13241;51.208;4.432;2024-02-28T09:14:53;26.63;;;6.60;;
25299;SDS011;13241;51.208;4.432;2024-02-28T09:17:21;14.63;;;6.55;;
25299;SDS011;13241;51.208;4.432;2024-02-28T09:19:48;14.20;;;6.68;;
25299;SDS011;13241;51.208;4.432;2024-02-28T09:22:15;17.67;;;8.07;;
25299;SDS011;13241;51.208;4.432;2024-02-28T09:24:44;24.85;;;6.35;;
25299;SDS011;13241;51.208;4.432;2024-02-28T09:27:11;18.98;;;6.65;;
25299;SDS011;13241;51.208;4.432;2024-02-28T09:29:39;31.02;;;7.20;;
25299;SDS011;13241;51.208;4.432;2024-02-28T09:32:06;16.10;;;6.50;;
25299;SDS011;13241;51.208;4.432;2024-02-28T09:34:33;17.60;;;7.95;;
25299;SDS011;13241;51.208;4.432;2024-02-28T09:37:00;14.27;;;5.85;;
25299;SDS011;13241;51.208;4.432;2024-02-28T09:39:28;20.00;;;5.78;;
25299;SDS011;13241;51.208;4.432;2024-02-28T09:41:55;12.15;;;5.82;;
25299;SDS011;13241;51.208;4.432;2024-02-28T09:44:22;18.65;;;6.88;;
25299;SDS011;13241;51.208;4.432;2024-02-28T09:46:51;12.25;;;6.32;;
25299;SDS011;13241;51.208;4.432;2024-02-28T09:49:18;18.88;;;6.88;;
25299;SDS011;13241;51.208;4.432;2024-02-28T09:51:47;19.27;;;6.07;;
25299;SDS011;13241;51.208;4.432;2024-02-28T09:54:19;13.60;;;6.90;;
25299;SDS011;13241;51.208;4.432;2024-02-28T09:56:47;17.58;;;7.20;;
25299;SDS011;13241;51.208;4.432;2024-02-28T09:59:18;20.08;;;6.72;;
25299;SDS011;13241;51.208;4.432;2024-02-28T10:01:53;10.75;;;5.32;;
25299;SDS011;13241;51.208;4.432;2024-02-28T10:04:23;20.05;;;7.00;;
25299;SDS011;13241;51.208;4.432;2024-02-28T10:06:52;18.60;;;6.32;;
25299;SDS011;13241;51.208;4.432;2024-02-28T10:09:19;10.70;;;5.07;;
25299;SDS011;13241;51.208;4.432;2024-02-28T10:11:47;15.82;;;4.93;;
25299;SDS011;13241;51.208;4.432;2024-02-28T10:14:18;15.40;;;6.47;;
25299;SDS011;13241;51.208;4.432;2024-02-28T10:16:45;14.85;;;6.78;;
25299;SDS011;13241;51.208;4.432;2024-02-28T10:19:13;16.33;;;5.53;;
25299;SDS011;13241;51.208;4.432;2024-02-28T10:21:41;17.27;;;6.40;;
25299;SDS011;13241;51.208;4.432;2024-02-28T10:24:11;13.27;;;5.85;;
25299;SDS011;13241;51.208;4.432;2024-02-28T10:26:46;13.88;;;5.28;;
25299;SDS011;13241;51.208;4.432;2024-02-28T10:31:59;7.70;;;4.03;;
25299;SDS011;13241;51.208;4.432;2024-02-28T10:34:26;9.65;;;4.70;;
25299;SDS011;13241;51.208;4.432;2024-02-28T10:36:54;11.40;;;4.53;;
25299;SDS011;13241;51.208;4.432;2024-02-28T10:39:21;11.38;;;4.88;;
25299;SDS011;13241;51.208;4.432;2024-02-28T10:41:49;10.25;;;5.30;;
25299;SDS011;13241;51.208;4.432;2024-02-28T10:44:17;12.88;;;5.72;;
25299;SDS011;13241;51.208;4.432;2024-02-28T10:46:48;12.98;;;4.68;;
25299;SDS011;13241;51.208;4.432;2024-02-28T10:49:16;15.10;;;6.18;;
25299;SDS011;13241;51.208;4.432;2024-02-28T10:51:45;10.68;;;5.85;;
25299;SDS011;13241;51.208;4.432;2024-02-28T10:54:13;10.27;;;4.78;;
25299;SDS011;13241;51.208;4.432;2024-02-28T10:56:43;11.73;;;5.63;;
25299;SDS011;13241;51.208;4.432;2024-02-28T10:59:11;9.75;;;4.88;;
25299;SDS011;13241;51.208;4.432;2024-02-28T11:01:42;12.65;;;4.18;;
25299;SDS011;13241;51.208;4.432;2024-02-28T11:04:11;12.20;;;4.55;;
25299;SDS011;13241;51.208;4.432;2024-02-28T11:06:52;12.65;;;4.80;;
25299;SDS011;13241;51.208;4.432;2024-02-28T11:09:21;10.27;;;4.90;;
25299;SDS011;13241;51.208;4.432;2024-02-28T11:11:49;11.38;;;4.35;;
25299;SDS011;13241;51.208;4.432;2024-02-28T11:14:18;7.03;;;3.55;;
25299;SDS011;13241;51.208;4.432;2024-02-28T11:17:03;7.53;;;4.82;;
25299;SDS011;13241;51.208;4.432;2024-02-28T11:19:31;7.55;;;3.25;;
25299;SDS011;13241;51.208;4.432;2024-02-28T11:22:00;10.77;;;3.83;;
25299;SDS011;13241;51.208;4.432;2024-02-28T11:24:32;7.25;;;3.17;;
25299;SDS011;13241;51.208;4.432;2024-02-28T11:27:00;6.00;;;3.50;;
25299;SDS011;13241;51.208;4.432;2024-02-28T11:29:29;10.45;;;3.35;;
25299;SDS011;13241;51.208;4.432;2024-02-28T11:31:57;11.57;;;4.28;;
25299;SDS011;13241;51.208;4.432;2024-02-28T11:34:25;7.85;;;3.33;;
25299;SDS011;13241;51.208;4.432;2024-02-28T11:36:52;7.80;;;3.65;;
25299;SDS011;13241;51.208;4.432;2024-02-28T11:39:23;7.63;;;3.78;;
25299;SDS011;13241;51.208;4.432;2024-02-28T11:41:53;7.60;;;4.30;;
25299;SDS011;13241;51.208;4.432;2024-02-28T11:44:22;5.82;;;3.45;;
25299;SDS011;13241;51.208;4.432;2024-02-28T11:46:49;8.68;;;3.65;;
25299;SDS011;13241;51.208;4.432;2024-02-28T11:49:17;9.60;;;4.43;;
25299;SDS011;13241;51.208;4.432;2024-02-28T11:51:45;8.45;;;3.15;;
25299;SDS011;13241;51.208;4.432;2024-02-28T11:54:12;7.10;;;3.17;;
25299;SDS011;13241;51.208;4.432;2024-02-28T11:56:40;5.90;;;3.53;;
25299;SDS011;13241;51.208;4.432;2024-02-28T11:59:08;6.95;;;3.60;;
25299;SDS011;13241;51.208;4.432;2024-02-28T12:01:40;4.97;;;3.35;;
25299;SDS011;13241;51.208;4.432;2024-02-28T12:04:10;11.65;;;3.35;;
25299;SDS011;13241;51.208;4.432;2024-02-28T12:06:38;6.10;;;3.53;;
25299;SDS011;13241;51.208;4.432;2024-02-28T12:09:09;6.53;;;3.55;;
25299;SDS011;13241;51.208;4.432;2024-02-28T12:11:41;6.93;;;3.65;;
25299;SDS011;13241;51.208;4.432;2024-02-28T12:14:09;6.13;;;3.30;;
25299;SDS011;13241;51.208;4.432;2024-02-28T12:16:37;7.57;;;3.90;;
25299;SDS011;13241;51.208;4.432;2024-02-28T12:19:11;7.00;;;3.85;;
25299;SDS011;13241;51.208;4.432;2024-02-28T12:21:39;6.82;;;3.45;;
25299;SDS011;13241;51.208;4.432;2024-02-28T12:24:07;6.10;;;3.58;;
25299;SDS011;13241;51.208;4.432;2024-02-28T12:26:38;5.55;;;3.67;;
25299;SDS011;13241;51.208;4.432;2024-02-28T12:29:06;7.28;;;3.42;;
25299;SDS011;13241;51.208;4.432;2024-02-28T12:31:33;5.03;;;3.17;;
25299;SDS011;13241;51.208;4.432;2024-02-28T12:34:01;7.15;;;3.05;;
25299;SDS011;13241;51.208;4.432;2024-02-28T12:36:30;4.82;;;3.28;;
25299;SDS011;13241;51.208;4.432;2024-02-28T12:38:58;12.50;;;3.72;;
25299;SDS011;13241;51.208;4.432;2024-02-28T12:41:26;7.00;;;3.75;;
25299;SDS011;13241;51.208;4.432;2024-02-28T12:43:54;5.53;;;2.97;;
25299;SDS011;13241;51.208;4.432;2024-02-28T12:46:21;5.78;;;3.40;;
25299;SDS011;13241;51.208;4.432;2024-02-28T12:48:49;10.75;;;3.05;;
25299;SDS011;13241;51.208;4.432;2024-02-28T12:54:03;6.72;;;3.03;;
25299;SDS011;13241;51.208;4.432;2024-02-28T12:56:30;5.15;;;2.92;;
25299;SDS011;13241;51.208;4.432;2024-02-28T12:58:58;8.77;;;3.25;;
25299;SDS011;13241;51.208;4.432;2024-02-28T13:01:26;12.38;;;4.18;;
25299;SDS011;13241;51.208;4.432;2024-02-28T13:03:54;5.47;;;3.20;;
25299;SDS011;13241;51.208;4.432;2024-02-28T13:06:21;6.55;;;2.95;;
25299;SDS011;13241;51.208;4.432;2024-02-28T13:08:48;10.35;;;4.00;;
25299;SDS011;13241;51.208;4.432;2024-02-28T13:11:19;5.70;;;3.33;;
25299;SDS011;13241;51.208;4.432;2024-02-28T13:13:47;5.68;;;3.33;;
25299;SDS011;13241;51.208;4.432;2024-02-28T13:16:18;6.55;;;3.13;;
25299;SDS011;13241;51.208;4.432;2024-02-28T13:18:46;5.30;;;3.08;;
25299;SDS011;13241;51.208;4.432;2024-02-28T13:21:13;4.07;;;3.00;;
25299;SDS011;13241;51.208;4.432;2024-02-28T13:23:41;6.20;;;3.63;;
25299;SDS011;13241;51.208;4.432;2024-02-28T13:26:08;7.85;;;3.80;;
25299;SDS011;13241;51.208;4.432;2024-02-28T13:28:36;6.25;;;3.50;;
25299;SDS011;13241;51.208;4.432;2024-02-28T13:31:04;8.20;;;3.35;;
25299;SDS011;13241;51.208;4.432;2024-02-28T13:33:31;5.53;;;2.65;;
25299;SDS011;13241;51.208;4.432;2024-02-28T13:35:59;4.25;;;2.65;;
25299;SDS011;13241;51.208;4.432;2024-02-28T13:38:26;4.82;;;3.00;;
25299;SDS011;13241;51.208;4.432;2024-02-28T13:40:53;3.60;;;2.65;;
25299;SDS011;13241;51.208;4.432;2024-02-28T13:43:21;3.50;;;2.47;;
25299;SDS011;13241;51.208;4.432;2024-02-28T13:45:49;4.00;;;2.25;;
25299;SDS011;13241;51.208;4.432;2024-02-28T13:48:18;11.43;;;3.33;;
25299;SDS011;13241;51.208;4.432;2024-02-28T13:50:53;3.58;;;1.80;;
25299;SDS011;13241;51.208;4.432;2024-02-28T13:53:20;3.35;;;1.92;;
25299;SDS011;13241;51.208;4.432;2024-02-28T13:55:48;4.10;;;2.33;;
25299;SDS011;13241;51.208;4.432;2024-02-28T13:58:15;4.63;;;2.60;;
25299;SDS011;13241;51.208;4.432;2024-02-28T14:00:45;5.15;;;2.53;;
25299;SDS011;13241;51.208;4.432;2024-02-28T14:03:16;3.53;;;2.38;;
25299;SDS011;13241;51.208;4.432;2024-02-28T14:05:43;2.33;;;1.77;;
25299;SDS011;13241;51.208;4.432;2024-02-28T14:08:10;9.75;;;2.80;;
25299;SDS011;13241;51.208;4.432;2024-02-28T14:10:39;6.05;;;2.58;;
25299;SDS011;13241;51.208;4.432;2024-02-28T14:13:06;8.63;;;2.70;;
25299;SDS011;13241;51.208;4.432;2024-02-28T14:15:34;3.38;;;2.38;;
25299;SDS011;13241;51.208;4.432;2024-02-28T14:18:03;5.78;;;2.00;;
25299;SDS011;13241;51.208;4.432;2024-02-28T14:20:30;4.18;;;2.85;;
25299;SDS011;13241;51.208;4.432;2024-02-28T14:22:57;3.83;;;2.08;;
25299;SDS011;13241;51.208;4.432;2024-02-28T14:25:25;4.80;;;2.50;;
25299;SDS011;13241;51.208;4.432;2024-02-28T14:27:53;3.15;;;2.25;;
25299;SDS011;13241;51.208;4.432;2024-02-28T14:30:21;8.65;;;2.80;;
25299;SDS011;13241;51.208;4.432;2024-02-28T14:32:48;6.43;;;2.38;;
25299;SDS011;13241;51.208;4.432;2024-02-28T14:35:16;5.00;;;2.50;;
25299;SDS011;13241;51.208;4.432;2024-02-28T14:37:44;6.00;;;3.38;;
25299;SDS011;13241;51.208;4.432;2024-02-28T14:40:11;5.93;;;2.60;;
25299;SDS011;13241;51.208;4.432;2024-02-28T14:42:39;7.05;;;3.05;;
25299;SDS011;13241;51.208;4.432;2024-02-28T14:45:07;2.67;;;2.22;;
25299;SDS011;13241;51.208;4.432;2024-02-28T14:47:35;8.13;;;2.17;;
25299;SDS011;13241;51.208;4.432;2024-02-28T14:50:03;3.47;;;2.47;;
25299;SDS011;13241;51.208;4.432;2024-02-28T14:52:31;3.90;;;2.65;;